Time;durP1;ratioP1;P1;durP2;ratioP2;P2;SDS_P1;SDS_P2;PMS_P1;PMS_P2;Temp;Humidity;BMP_temperature;BMP_pressure;BME280_temperature;BME280_humidity;BME280_pressure;Samples;Min_cycle;Max_cycle;Signal;HPM_P1;HPM_P2
2021/03/19 00:00:33;;;;;;;4.78;1.13;;;;;;;0.36;53.79;102206.59;5037525;28;20113;-72
2021/03/19 00:02:58;;;;;;;4.75;1.10;;;;;;;0.34;53.70;102209.13;5034447;28;20255;-72
2021/03/19 00:05:28;;;;;;;7.85;1.52;;;;;;;0.23;53.79;102206.31;5023626;28;20447;-72
2021/03/19 00:07:56;;;;;;;7.93;1.58;;;;;;;0.20;53.81;102208.78;5012658;28;20029;-72
2021/03/19 00:10:31;;;;;;;2.47;0.93;;;;;;;0.17;53.73;102200.16;5027294;28;20033;-73
2021/03/19 00:13:00;;;;;;;7.03;1.90;;;;;;;0.12;53.63;102212.00;5020462;28;20388;-71
2021/03/19 00:15:26;;;;;;;7.78;1.92;;;;;;;0.03;53.58;102215.22;5032044;28;20026;-72
2021/03/19 00:17:53;;;;;;;7.88;1.38;;;;;;;0.02;53.35;102222.06;5035232;28;20051;-72
2021/03/19 00:20:19;;;;;;;5.65;2.30;;;;;;;-0.10;53.63;102220.88;5033515;28;20111;-73
2021/03/19 00:22:45;;;;;;;5.03;1.13;;;;;;;-0.05;53.53;102219.31;5036826;28;20053;-71
2021/03/19 00:25:11;;;;;;;8.27;1.60;;;;;;;-0.09;53.29;102214.91;5035170;28;20072;-72
2021/03/19 00:27:37;;;;;;;2.88;0.93;;;;;;;-0.20;53.60;102215.50;5032487;28;20036;-71
2021/03/19 00:30:05;;;;;;;3.35;1.10;;;;;;;-0.29;53.73;102216.97;5036751;28;20407;-72
2021/03/19 00:32:31;;;;;;;4.25;0.52;;;;;;;-0.35;53.68;102205.69;5037212;28;20064;-72
2021/03/19 00:34:56;;;;;;;3.78;1.00;;;;;;;-0.32;53.58;102207.47;5031661;28;20037;-71
2021/03/19 00:37:22;;;;;;;3.28;1.20;;;;;;;-0.37;53.35;102217.63;5023514;28;20075;-71
2021/03/19 00:39:47;;;;;;;6.20;1.02;;;;;;;-0.44;53.37;102210.56;5032714;28;20036;-72
2021/03/19 00:42:13;;;;;;;7.90;1.50;;;;;;;-0.48;53.46;102213.00;5023031;28;20068;-74
2021/03/19 00:44:40;;;;;;;6.85;1.92;;;;;;;-0.50;53.42;102214.66;5035719;28;20113;-74
2021/03/19 00:47:06;;;;;;;5.43;1.70;;;;;;;-0.58;53.43;102222.16;5030983;28;20406;-75
2021/03/19 00:49:31;;;;;;;5.28;1.40;;;;;;;-0.62;53.44;102220.34;5016329;28;20025;-75
2021/03/19 00:51:58;;;;;;;3.65;1.10;;;;;;;-0.69;53.44;102232.13;5016751;28;20041;-74
2021/03/19 00:54:23;;;;;;;10.45;1.48;;;;;;;-0.74;53.48;102226.00;5017869;28;20030;-74
2021/03/19 00:56:49;;;;;;;4.75;1.40;;;;;;;-0.79;53.32;102235.28;5034686;28;20029;-74
2021/03/19 00:59:14;;;;;;;8.25;1.30;;;;;;;-0.80;53.27;102228.38;5035079;28;20475;-75
2021/03/19 01:01:40;;;;;;;6.47;1.63;;;;;;;-0.86;53.65;102225.63;5021067;28;20407;-74
2021/03/19 01:04:06;;;;;;;3.72;0.80;;;;;;;-0.82;53.36;102232.59;5010989;28;20036;-74
2021/03/19 01:06:32;;;;;;;5.45;1.23;;;;;;;-0.84;53.39;102244.53;5024447;28;20037;-75
2021/03/19 01:08:59;;;;;;;4.07;2.10;;;;;;;-0.86;53.52;102251.31;5013604;28;20028;-72
2021/03/19 01:11:28;;;;;;;5.45;1.38;;;;;;;-0.83;53.43;102247.16;5031815;28;20068;-74
2021/03/19 01:13:55;;;;;;;7.90;1.55;;;;;;;-0.94;53.48;102252.78;5038034;28;20041;-72
2021/03/19 01:16:21;;;;;;;2.50;1.08;;;;;;;-0.97;53.58;102253.56;5018573;28;20132;-73
2021/03/19 01:18:47;;;;;;;4.47;1.10;;;;;;;-0.92;53.26;102258.84;5017589;28;20671;-73
2021/03/19 01:21:13;;;;;;;4.38;1.13;;;;;;;-0.93;53.25;102259.66;5025571;28;20037;-72
2021/03/19 01:23:40;;;;;;;5.20;1.42;;;;;;;-0.96;53.34;102265.56;5032385;28;20411;-69
2021/03/19 01:26:06;;;;;;;9.93;1.50;;;;;;;-0.98;53.43;102265.50;5033069;28;20041;-70
2021/03/19 01:28:31;;;;;;;5.35;1.40;;;;;;;-0.89;53.09;102256.34;5013051;28;20566;-69
2021/03/19 01:30:57;;;;;;;3.47;1.27;;;;;;;-0.96;53.20;102257.88;5029177;28;20399;-69
2021/03/19 01:33:23;;;;;;;8.63;1.92;;;;;;;-1.02;53.15;102266.28;5013807;28;20089;-68
2021/03/19 01:35:48;;;;;;;6.28;1.45;;;;;;;-1.05;53.10;102263.59;5016395;28;20477;-68
2021/03/19 01:38:14;;;;;;;2.40;1.15;;;;;;;-1.08;53.02;102265.19;5022732;28;20547;-68
2021/03/19 01:40:43;;;;;;;5.22;1.23;;;;;;;-1.08;53.23;102268.59;5020903;28;20107;-69
2021/03/19 01:43:17;;;;;;;1.95;0.90;;;;;;;-1.12;53.16;102271.91;5030353;28;20073;-69
2021/03/19 01:46:20;;;;;;;3.58;1.50;;;;;;;-1.09;53.21;102268.56;5030115;28;20025;-69
2021/03/19 01:49:25;;;;;;;5.57;1.50;;;;;;;-1.12;53.08;102277.03;5030451;28;20068;-69
2021/03/19 01:52:28;;;;;;;9.27;1.70;;;;;;;-1.18;53.09;102270.00;5028948;28;20112;-68
2021/03/19 01:55:31;;;;;;;6.38;1.02;;;;;;;-1.22;53.24;102277.56;5028346;28;20115;-69
2021/03/19 01:58:54;;;;;;;9.07;1.60;;;;;;;-1.27;53.20;102273.97;5021106;28;20526;-69
2021/03/19 02:01:57;;;;;;;3.97;1.63;;;;;;;-1.29;53.13;102281.63;4941074;28;20030;-69
2021/03/19 02:05:01;;;;;;;4.90;1.60;;;;;;;-1.46;53.86;102275.97;4944340;28;20027;-68
2021/03/19 02:08:04;;;;;;;4.68;1.23;;;;;;;-1.38;53.51;102276.19;5033505;28;20399;-70
2021/03/19 02:11:07;;;;;;;5.80;1.70;;;;;;;-1.30;53.37;102281.59;5038550;28;20021;-69
2021/03/19 02:14:10;;;;;;;4.18;1.48;;;;;;;-1.26;53.19;102278.31;5034285;28;20491;-72
2021/03/19 02:17:13;;;;;;;5.05;2.42;;;;;;;-1.29;53.45;102273.94;5022553;28;20108;-72
2021/03/19 02:20:16;;;;;;;6.75;2.30;;;;;;;-1.31;53.37;102272.13;5009319;28;20048;-74
2021/03/19 02:23:19;;;;;;;3.60;1.42;;;;;;;-1.26;53.20;102270.63;5040344;28;20044;-75
2021/03/19 02:26:22;;;;;;;6.82;1.60;;;;;;;-1.25;53.24;102274.91;5029177;28;20138;-73
2021/03/19 02:29:25;;;;;;;7.28;1.67;;;;;;;-1.25;53.17;102273.19;5029300;28;20036;-73
2021/03/19 02:31:54;;;;;;;4.88;1.60;;;;;;;-1.32;53.30;102278.09;5013260;28;20037;-74
2021/03/19 02:34:29;;;;;;;4.32;1.75;;;;;;;-1.39;53.73;102275.34;5029682;28;20430;-74
2021/03/19 02:36:56;;;;;;;4.35;1.20;;;;;;;-1.28;53.22;102279.94;5038949;28;20044;-74
2021/03/19 02:39:21;;;;;;;5.70;1.52;;;;;;;-1.12;52.89;102273.59;5018133;28;20029;-74
2021/03/19 02:41:47;;;;;;;2.50;1.08;;;;;;;-1.21;52.69;102269.06;5017090;28;20410;-74
2021/03/19 02:44:12;;;;;;;4.20;1.33;;;;;;;-1.27;52.80;102273.97;5024988;28;20455;-74
2021/03/19 02:46:38;;;;;;;8.73;2.05;;;;;;;-1.38;53.04;102271.06;5026785;28;20037;-74
2021/03/19 02:49:03;;;;;;;2.25;0.90;;;;;;;-1.45;53.13;102270.00;5031894;28;20400;-74
2021/03/19 02:51:30;;;;;;;2.72;1.00;;;;;;;-1.38;52.88;102277.06;5036869;28;20037;-74
2021/03/19 02:53:56;;;;;;;7.15;2.45;;;;;;;-1.41;52.90;102274.41;5018084;28;20048;-74
2021/03/19 02:56:21;;;;;;;2.50;1.42;;;;;;;-1.45;52.83;102282.81;5038409;28;20028;-74
2021/03/19 02:58:47;;;;;;;4.57;1.30;;;;;;;-1.50;52.94;102286.94;5035781;28;20071;-74
2021/03/19 03:01:12;;;;;;;5.45;1.20;;;;;;;-1.60;53.01;102290.91;5018395;28;20030;-73
2021/03/19 03:03:37;;;;;;;3.95;1.95;;;;;;;-1.55;53.18;102285.94;5031830;28;20423;-74
2021/03/19 03:06:03;;;;;;;2.63;1.63;;;;;;;-1.52;53.08;102292.84;5031293;28;20487;-73
2021/03/19 03:08:31;;;;;;;4.32;1.42;;;;;;;-1.51;52.94;102294.56;5014423;28;20029;-70
2021/03/19 03:10:57;;;;;;;5.07;1.60;;;;;;;-1.45;52.80;102298.22;5033828;28;20025;-70
2021/03/19 03:13:22;;;;;;;4.60;1.63;;;;;;;-1.48;52.82;102300.69;5032090;28;20103;-70
2021/03/19 03:15:48;;;;;;;3.75;1.10;;;;;;;-1.47;53.37;102304.97;5039815;28;20041;-75
2021/03/19 03:18:14;;;;;;;3.17;1.35;;;;;;;-1.51;52.85;102305.72;5033848;28;20092;-73
2021/03/19 03:20:47;;;;;;;4.00;1.30;;;;;;;-1.53;53.01;102312.50;5021201;28;20036;-73
2021/03/19 03:23:14;;;;;;;4.53;1.67;;;;;;;-1.58;52.96;102316.56;5019874;28;20071;-73
2021/03/19 03:25:40;;;;;;;2.00;1.00;;;;;;;-1.59;52.86;102315.72;5025306;28;20034;-71
2021/03/19 03:28:08;;;;;;;6.53;1.58;;;;;;;-1.59;52.87;102317.41;5024015;28;20538;-71
2021/03/19 03:30:41;;;;;;;3.05;1.00;;;;;;;-1.58;52.94;102316.56;5031722;28;20037;-71
2021/03/19 03:33:08;;;;;;;3.10;1.73;;;;;;;-1.53;52.98;102332.13;5016399;28;20033;-73
2021/03/19 03:35:34;;;;;;;3.03;1.05;;;;;;;-1.46;52.85;102332.38;5035596;28;20091;-71
2021/03/19 03:38:02;;;;;;;3.63;1.55;;;;;;;-1.43;52.81;102339.31;5034747;28;20045;-75
2021/03/19 03:40:39;;;;;;;3.03;1.33;;;;;;;-1.46;52.79;102332.38;5022067;28;20486;-75
2021/03/19 03:43:05;;;;;;;1.92;1.15;;;;;;;-1.35;52.59;102334.41;5028350;28;20061;-75
2021/03/19 03:45:31;;;;;;;4.68;1.13;;;;;;;-1.42;52.33;102335.91;5034017;28;20029;-77
2021/03/19 03:47:57;;;;;;;5.88;1.10;;;;;;;-1.47;52.68;102343.44;5035738;28;20510;-75
2021/03/19 03:50:27;;;;;;;3.05;0.80;;;;;;;-1.44;52.67;102341.00;5047350;28;20044;-77
2021/03/19 03:52:53;;;;;;;4.82;1.45;;;;;;;-1.44;52.53;102338.44;5042918;28;20036;-76
2021/03/19 03:55:19;;;;;;;3.80;0.85;;;;;;;-1.45;52.51;102336.69;5049984;28;20028;-76
2021/03/19 03:57:45;;;;;;;3.38;1.33;;;;;;;-1.34;52.31;102341.31;5055851;28;20047;-74
2021/03/19 04:00:14;;;;;;;4.45;0.93;;;;;;;-1.46;52.33;102347.78;5040984;28;20037;-75
2021/03/19 04:02:40;;;;;;;4.07;1.05;;;;;;;-1.43;52.39;102350.44;5042682;28;20025;-74
2021/03/19 04:05:08;;;;;;;8.35;1.52;;;;;;;-1.47;52.84;102348.59;5041482;28;20030;-74
2021/03/19 04:07:35;;;;;;;6.10;0.77;;;;;;;-1.47;52.41;102347.72;5030326;28;20033;-76
2021/03/19 04:10:01;;;;;;;3.40;1.00;;;;;;;-1.48;52.27;102362.25;5010586;28;21171;-76
2021/03/19 04:12:26;;;;;;;5.35;1.65;;;;;;;-1.44;52.08;102364.09;5010444;28;20116;-73
2021/03/19 04:14:52;;;;;;;4.90;0.55;;;;;;;-1.48;52.18;102362.25;5008196;28;20028;-74
2021/03/19 04:17:28;;;;;;;2.58;1.27;;;;;;;-1.47;52.33;102363.97;5015141;28;20043;-72
2021/03/19 04:19:55;;;;;;;3.58;1.02;;;;;;;-1.32;52.33;102365.31;5035214;28;20041;-72
2021/03/19 04:22:21;;;;;;;1.30;0.77;;;;;;;-1.28;52.42;102369.75;5032177;28;20020;-72
2021/03/19 04:24:48;;;;;;;3.05;0.85;;;;;;;-1.28;52.04;102374.88;5013733;28;20121;-72
2021/03/19 04:27:22;;;;;;;1.85;0.73;;;;;;;-1.32;52.08;102375.59;5026308;28;20038;-72
2021/03/19 04:29:48;;;;;;;4.30;1.55;;;;;;;-1.31;52.33;102377.31;5022021;28;20044;-74
2021/03/19 04:32:14;;;;;;;3.40;0.95;;;;;;;-1.33;52.06;102378.94;5047644;28;20029;-78
2021/03/19 04:34:40;;;;;;;6.28;1.63;;;;;;;-1.31;51.63;102379.88;5039317;28;20107;-73
2021/03/19 04:37:07;;;;;;;4.13;0.93;;;;;;;-1.41;52.08;102389.84;5019114;28;20116;-75
2021/03/19 04:39:33;;;;;;;4.20;1.02;;;;;;;-1.47;52.04;102389.63;5033605;28;20044;-75
2021/03/19 04:42:02;;;;;;;2.47;1.08;;;;;;;-1.45;52.06;102390.53;5032223;28;20033;-71
2021/03/19 04:44:34;;;;;;;2.35;0.95;;;;;;;-1.53;51.96;102394.56;5030422;28;20045;-72
2021/03/19 04:47:00;;;;;;;4.18;0.90;;;;;;;-1.52;52.22;102391.16;5031234;28;20036;-73
2021/03/19 04:49:25;;;;;;;1.83;0.88;;;;;;;-1.45;51.81;102403.38;5014309;28;20116;-72
2021/03/19 04:51:51;;;;;;;3.05;0.77;;;;;;;-1.48;52.08;102403.28;5029693;28;20395;-72
2021/03/19 04:54:16;;;;;;;2.72;1.20;;;;;;;-1.44;52.18;102397.44;5026789;28;20369;-71
2021/03/19 04:56:42;;;;;;;3.50;1.42;;;;;;;-1.52;52.08;102396.28;5012264;28;20529;-76
2021/03/19 04:59:08;;;;;;;1.95;0.70;;;;;;;-1.63;52.66;102408.72;5009509;28;20127;-77
2021/03/19 05:01:49;;;;;;;2.83;0.90;;;;;;;-1.56;52.51;102398.69;5018051;28;20071;-76
2021/03/19 05:04:15;;;;;;;4.65;1.23;;;;;;;-1.55;52.27;102400.44;5034636;28;20029;-76
2021/03/19 05:06:40;;;;;;;1.92;0.80;;;;;;;-1.51;52.38;102407.41;5025507;28;20117;-73
2021/03/19 05:09:06;;;;;;;3.03;0.85;;;;;;;-1.53;52.07;102407.38;5022912;28;20483;-77
2021/03/19 05:11:31;;;;;;;2.25;1.33;;;;;;;-1.58;52.37;102406.31;5023392;28;20029;-78
2021/03/19 05:13:57;;;;;;;1.67;0.60;;;;;;;-1.53;52.33;102406.47;5032268;28;20025;-76
2021/03/19 05:16:22;;;;;;;1.60;0.40;;;;;;;-1.55;52.19;102408.13;5016500;28;20565;-72
2021/03/19 05:18:48;;;;;;;2.30;0.90;;;;;;;-1.51;52.07;102408.31;5021297;28;20033;-71
2021/03/19 05:21:13;;;;;;;1.92;1.05;;;;;;;-1.60;52.24;102411.41;5033396;28;20091;-75
2021/03/19 05:23:39;;;;;;;2.22;0.73;;;;;;;-1.57;52.08;102410.66;5015718;28;20080;-71
2021/03/19 05:26:06;;;;;;;2.45;0.80;;;;;;;-1.60;51.84;102413.97;5034076;28;20162;-72
2021/03/19 05:28:32;;;;;;;1.48;0.50;;;;;;;-1.73;52.07;102421.16;5018929;28;20047;-73
2021/03/19 05:30:58;;;;;;;2.90;0.63;;;;;;;-1.67;51.69;102417.13;5003799;28;20021;-75
2021/03/19 05:33:28;;;;;;;5.70;0.68;;;;;;;-1.71;51.88;102422.09;5016959;28;20115;-73
2021/03/19 05:35:55;;;;;;;2.65;0.52;;;;;;;-1.76;51.78;102423.63;5045009;28;20048;-75
2021/03/19 05:38:21;;;;;;;5.43;1.08;;;;;;;-1.73;51.72;102428.84;5011403;28;20134;-75
2021/03/19 05:40:51;;;;;;;3.17;0.68;;;;;;;-1.76;51.75;102423.63;5034572;28;20033;-75
2021/03/19 05:43:20;;;;;;;1.50;0.60;;;;;;;-1.83;51.50;102425.09;5033641;28;20032;-77
2021/03/19 05:46:01;;;;;;;1.30;0.82;;;;;;;-1.86;51.73;102432.69;5040077;28;20170;-77
2021/03/19 05:48:50;;;;;;;7.38;1.10;;;;;;;-1.80;51.54;102440.56;5017176;28;20089;-75
2021/03/19 05:51:20;;;;;;;1.50;0.60;;;;;;;-1.81;51.51;102439.72;5034028;28;20029;-72
2021/03/19 05:53:53;;;;;;;3.17;1.00;;;;;;;-1.82;51.47;102448.22;5032047;28;20044;-72
2021/03/19 05:56:24;;;;;;;3.65;1.20;;;;;;;-1.75;51.50;102438.22;5022712;28;20056;-70
2021/03/19 05:58:49;;;;;;;2.58;1.05;;;;;;;-1.63;51.17;102438.63;5022752;28;20040;-73
2021/03/19 06:01:15;;;;;;;4.90;1.25;;;;;;;-1.73;51.09;102447.69;5033656;28;20403;-74
2021/03/19 06:03:42;;;;;;;2.67;0.88;;;;;;;-1.68;51.06;102455.56;5004452;28;20017;-74
2021/03/19 06:06:09;;;;;;;2.03;1.20;;;;;;;-1.63;51.01;102454.00;5034262;28;20761;-75
2021/03/19 06:08:45;;;;;;;3.45;1.50;;;;;;;-1.63;50.63;102456.56;5031925;28;20036;-73
2021/03/19 06:11:21;;;;;;;4.30;1.17;;;;;;;-1.61;50.94;102460.06;5003435;28;20072;-72
2021/03/19 06:13:49;;;;;;;3.55;1.58;;;;;;;-1.57;50.75;102463.63;5007096;28;20037;-74
2021/03/19 06:16:39;;;;;;;6.70;1.70;;;;;;;-1.50;50.70;102465.59;5038535;28;20037;-75
2021/03/19 06:19:25;;;;;;;3.90;1.75;;;;;;;-1.35;50.74;102470.38;5021736;28;20042;-75
2021/03/19 06:22:03;;;;;;;3.17;1.13;;;;;;;-1.11;51.11;102473.78;5015369;28;20032;-72
2021/03/19 06:24:28;;;;;;;3.30;1.35;;;;;;;0.88;49.87;102475.50;5033301;28;20029;-72
2021/03/19 06:27:20;;;;;;;5.85;1.55;;;;;;;4.15;42.81;102468.06;5035244;28;20313;-70
2021/03/19 06:29:56;;;;;;;4.10;0.68;;;;;;;6.17;36.84;102478.41;5028392;28;20041;-69
2021/03/19 06:32:28;;;;;;;2.83;0.63;;;;;;;8.13;32.73;102470.66;5030451;28;20036;-70
2021/03/19 06:35:09;;;;;;;7.85;1.85;;;;;;;9.49;30.40;102467.97;5023829;28;20026;-71
2021/03/19 06:37:48;;;;;;;16.50;5.28;;;;;;;10.98;27.74;102468.69;5004834;28;20045;-73
2021/03/19 06:40:16;;;;;;;18.33;6.75;;;;;;;12.07;25.44;102468.47;5010269;28;20025;-75
2021/03/19 06:42:42;;;;;;;10.57;4.32;;;;;;;12.28;25.48;102472.38;5015646;28;20030;-71
2021/03/19 06:45:17;;;;;;;8.88;3.45;;;;;;;13.36;23.00;102469.81;5005772;28;20022;-73
2021/03/19 06:47:46;;;;;;;5.03;1.75;;;;;;;13.70;23.62;102469.81;5020981;28;20079;-73
2021/03/19 06:50:34;;;;;;;3.15;0.60;;;;;;;14.00;23.55;102477.72;5021281;28;20398;-72
2021/03/19 06:53:19;;;;;;;2.47;0.52;;;;;;;13.49;25.11;102487.84;5035436;28;20022;-71
2021/03/19 06:55:50;;;;;;;0.93;0.25;;;;;;;14.43;23.14;102485.22;5035713;28;21027;-72
2021/03/19 06:58:31;;;;;;;2.72;0.20;;;;;;;14.80;22.44;102488.47;5023611;28;20033;-71
2021/03/19 07:00:56;;;;;;;0.90;0.20;;;;;;;15.44;21.99;102482.81;5008404;28;20044;-72
2021/03/19 07:04:02;;;;;;;1.52;0.20;;;;;;;15.88;22.57;102489.13;5040967;28;20403;-72
2021/03/19 07:06:52;;;;;;;1.92;0.30;;;;;;;16.00;21.88;102487.88;5014796;28;20049;-71
2021/03/19 07:09:46;;;;;;;8.13;0.43;;;;;;;16.03;21.20;102492.16;5030444;28;20036;-71
2021/03/19 07:12:30;;;;;;;1.30;0.30;;;;;;;16.14;21.78;102495.25;5037759;28;20033;-71
2021/03/19 07:14:59;;;;;;;0.77;0.30;;;;;;;16.85;19.96;102503.06;5020912;28;20025;-70
2021/03/19 07:17:38;;;;;;;2.00;0.50;;;;;;;17.41;19.89;102502.44;5037401;28;20033;-72
2021/03/19 07:20:22;;;;;;;2.85;0.30;;;;;;;17.30;19.96;102499.41;5036659;28;20407;-72
2021/03/19 07:23:17;;;;;;;3.88;0.40;;;;;;;17.42;19.33;102504.16;5033515;28;20068;-72
2021/03/19 07:25:56;;;;;;;2.45;0.30;;;;;;;17.15;19.86;102520.25;5035444;28;20029;-72
2021/03/19 07:28:49;;;;;;;1.27;0.47;;;;;;;17.28;20.58;102517.97;5015922;28;20028;-72
2021/03/19 07:31:18;;;;;;;2.08;0.70;;;;;;;17.80;20.56;102520.16;5035958;28;20498;-71
2021/03/19 07:33:55;;;;;;;1.65;0.35;;;;;;;18.15;19.95;102525.63;5036022;28;20045;-71
2021/03/19 07:36:36;;;;;;;2.88;0.30;;;;;;;17.85;19.89;102524.31;5010149;28;20027;-71
2021/03/19 07:39:20;;;;;;;3.22;0.68;;;;;;;17.96;20.07;102522.97;5002984;28;20044;-72
2021/03/19 07:42:07;;;;;;;2.25;0.80;;;;;;;17.56;20.09;102525.63;5032479;28;20036;-71
2021/03/19 07:44:45;;;;;;;2.72;1.17;;;;;;;18.03;20.25;102521.78;5032516;28;20030;-72
2021/03/19 07:47:32;;;;;;;5.95;0.90;;;;;;;16.67;21.49;102521.34;5016503;28;20480;-72
2021/03/19 07:50:07;;;;;;;2.67;1.17;;;;;;;16.61;22.63;102529.50;5037346;28;20042;-72
2021/03/19 07:52:56;;;;;;;5.70;1.15;;;;;;;15.83;22.56;102535.91;5037726;28;20029;-71
2021/03/19 07:55:27;;;;;;;3.30;1.58;;;;;;;16.85;21.16;102542.69;5023909;28;20047;-70
2021/03/19 07:58:04;;;;;;;3.70;1.02;;;;;;;16.81;21.42;102540.16;5016931;28;20144;-71
2021/03/19 08:00:34;;;;;;;1.58;0.70;;;;;;;16.09;21.96;102549.97;5022420;28;20041;-72
2021/03/19 08:03:15;;;;;;;2.95;0.80;;;;;;;15.39;22.73;102554.13;5036146;28;20048;-71
2021/03/19 08:05:51;;;;;;;5.60;1.85;;;;;;;14.68;24.11;102556.38;5033469;28;20032;-71
2021/03/19 08:08:20;;;;;;;5.43;1.50;;;;;;;14.50;23.98;102554.28;5033938;28;20040;-72
2021/03/19 08:11:02;;;;;;;4.25;1.38;;;;;;;15.30;23.30;102551.78;5031789;28;20048;-72
2021/03/19 08:14:08;;;;;;;2.25;0.77;;;;;;;16.06;21.98;102544.78;5033642;28;20164;-71
2021/03/19 08:16:52;;;;;;;3.22;0.82;;;;;;;15.07;22.31;102544.63;5033493;28;20029;-71
2021/03/19 08:19:35;;;;;;;2.03;0.60;;;;;;;14.37;23.45;102545.88;5036184;28;20709;-71
2021/03/19 08:22:16;;;;;;;1.83;0.85;;;;;;;14.93;23.73;102555.63;5036463;28;20033;-73
2021/03/19 08:24:49;;;;;;;1.73;0.90;;;;;;;14.53;23.47;102562.09;5033834;28;20060;-71
2021/03/19 08:27:52;;;;;;;1.98;0.63;;;;;;;14.58;23.06;102560.19;5039729;28;20353;-71
2021/03/19 08:30:37;;;;;;;4.70;0.75;;;;;;;11.13;27.24;102564.44;5034804;28;20518;-71
2021/03/19 08:33:22;;;;;;;0.55;0.30;;;;;;;8.40;31.75;102573.00;5031128;28;20033;-71
2021/03/19 08:36:00;;;;;;;0.88;0.25;;;;;;;7.24;34.42;102577.44;5031736;28;20070;-70
2021/03/19 08:38:47;;;;;;;2.30;0.40;;;;;;;6.82;36.03;102584.31;5015613;28;20184;-72
2021/03/19 08:41:23;;;;;;;1.67;0.32;;;;;;;6.75;36.05;102579.94;5016635;28;20299;-72
2021/03/19 08:43:53;;;;;;;0.68;0.20;;;;;;;6.34;36.73;102579.78;5019070;28;20034;-71
2021/03/19 08:46:40;;;;;;;1.65;0.20;;;;;;;5.96;38.55;102585.59;5018149;28;20096;-72
2021/03/19 08:49:14;;;;;;;1.25;0.52;;;;;;;6.30;38.46;102594.47;5003174;28;20124;-70
2021/03/19 08:51:43;;;;;;;2.70;1.10;;;;;;;5.98;39.61;102591.66;5029236;28;20038;-71
2021/03/19 08:54:12;;;;;;;1.15;0.73;;;;;;;6.00;40.06;102597.72;5031820;28;20047;-71
2021/03/19 08:56:44;;;;;;;1.58;0.30;;;;;;;5.70;40.24;102600.97;5011267;28;20036;-72
2021/03/19 08:59:30;;;;;;;1.27;0.63;;;;;;;6.43;39.21;102596.28;5022473;28;20036;-71
2021/03/19 09:02:00;;;;;;;3.45;0.30;;;;;;;5.84;39.65;102602.81;5034668;28;20125;-71
2021/03/19 09:04:53;;;;;;;0.95;0.30;;;;;;;6.08;39.61;102604.72;5032070;28;20179;-72
2021/03/19 09:07:30;;;;;;;1.98;0.57;;;;;;;6.08;40.02;102604.72;5014978;28;20426;-71
2021/03/19 09:09:58;;;;;;;1.73;0.63;;;;;;;5.66;39.92;102608.72;5029631;28;20416;-72
2021/03/19 09:12:30;;;;;;;4.68;0.28;;;;;;;5.13;39.95;102603.91;5031109;28;20037;-71
2021/03/19 09:15:14;;;;;;;1.42;0.28;;;;;;;6.05;38.64;102596.88;5034609;28;20042;-71
2021/03/19 09:17:43;;;;;;;5.38;0.80;;;;;;;5.95;38.53;102607.19;5027738;28;20041;-71
2021/03/19 09:20:26;;;;;;;1.60;0.45;;;;;;;6.59;37.31;102612.78;5030267;28;20120;-71
2021/03/19 09:23:19;;;;;;;3.53;0.70;;;;;;;7.62;37.18;102609.59;5031363;28;20040;-73
2021/03/19 09:25:47;;;;;;;5.53;0.20;;;;;;;8.33;35.53;102619.06;5005786;28;20482;-71
2021/03/19 09:28:20;;;;;;;2.58;0.20;;;;;;;8.11;33.97;102626.06;5032528;28;20125;-73
2021/03/19 09:30:55;;;;;;;3.25;0.40;;;;;;;8.60;33.27;102614.63;5028659;28;20349;-70
2021/03/19 09:33:45;;;;;;;0.95;0.30;;;;;;;7.88;34.53;102625.22;5029542;28;20155;-71
2021/03/19 09:36:48;;;;;;;0.50;0.20;;;;;;;8.29;34.59;102633.00;5032778;28;20637;-71
2021/03/19 09:39:48;;;;;;;2.50;0.32;;;;;;;7.80;34.83;102629.56;5035415;28;20025;-70
2021/03/19 09:42:19;;;;;;;5.90;0.32;;;;;;;8.12;34.68;102622.59;5032273;28;20037;-72
2021/03/19 09:45:00;;;;;;;4.47;0.70;;;;;;;8.28;34.72;102632.97;5032844;28;20608;-71
2021/03/19 09:47:29;;;;;;;2.92;0.30;;;;;;;9.64;32.53;102627.97;5031541;28;20091;-71
2021/03/19 09:50:13;;;;;;;2.58;0.63;;;;;;;9.91;31.95;102616.44;5034719;28;20032;-71
2021/03/19 09:52:53;;;;;;;1.98;0.38;;;;;;;9.70;30.86;102623.56;5032392;28;20037;-71
2021/03/19 09:55:22;;;;;;;3.67;0.30;;;;;;;10.68;30.30;102618.19;5018972;28;20415;-71
2021/03/19 09:57:48;;;;;;;1.85;0.70;;;;;;;11.00;28.91;102625.69;5014863;28;20111;-70
2021/03/19 10:00:16;;;;;;;1.90;0.20;;;;;;;10.89;28.67;102617.97;5018861;28;20055;-70
2021/03/19 10:02:42;;;;;;;1.58;0.45;;;;;;;11.00;28.00;102617.81;5023136;28;20039;-71
2021/03/19 10:05:19;;;;;;;2.47;0.25;;;;;;;10.79;28.25;102622.44;5036784;28;20060;-70
2021/03/19 10:07:54;;;;;;;3.60;0.50;;;;;;;10.93;28.64;102617.03;5021504;28;20446;-71
2021/03/19 10:10:37;;;;;;;1.88;0.20;;;;;;;10.26;30.02;102617.81;5031960;28;20629;-70
2021/03/19 10:13:09;;;;;;;2.15;0.50;;;;;;;9.24;31.84;102623.91;5037540;28;20033;-73
2021/03/19 10:15:35;;;;;;;1.67;0.20;;;;;;;8.77;32.21;102628.50;5030869;28;20542;-71
2021/03/19 10:18:05;;;;;;;2.53;0.22;;;;;;;9.08;32.24;102623.13;5032846;28;20487;-71
2021/03/19 10:20:41;;;;;;;2.55;0.30;;;;;;;8.87;31.27;102616.28;5014766;28;20029;-72
2021/03/19 10:23:22;;;;;;;2.60;0.40;;;;;;;9.43;31.97;102623.75;5038515;28;20147;-71
2021/03/19 10:25:49;;;;;;;5.68;0.30;;;;;;;9.71;29.93;102622.69;5023187;28;20125;-72
2021/03/19 10:28:17;;;;;;;1.50;0.20;;;;;;;9.14;30.34;102623.09;5041561;28;20017;-71
2021/03/19 10:30:54;;;;;;;2.65;0.20;;;;;;;9.32;30.88;102622.13;5025793;28;20041;-71
2021/03/19 10:33:29;;;;;;;4.47;1.08;;;;;;;9.44;30.21;102620.28;5022239;28;20108;-72
2021/03/19 10:36:00;;;;;;;4.40;0.70;;;;;;;9.54;30.60;102619.31;5030039;28;20094;-71
2021/03/19 10:39:01;;;;;;;1.97;0.20;;;;;;;9.40;30.70;102622.91;5039322;28;20070;-72
2021/03/19 10:41:41;;;;;;;1.55;0.30;;;;;;;9.22;30.95;102620.44;5040583;28;20056;-71
2021/03/19 10:44:14;;;;;;;4.53;0.43;;;;;;;8.62;30.56;102619.84;5041856;28;20451;-71
2021/03/19 10:46:47;;;;;;;0.98;0.30;;;;;;;8.71;30.58;102622.44;5042504;28;20037;-71
2021/03/19 10:49:30;;;;;;;2.10;0.20;;;;;;;9.51;30.13;102615.00;5021098;28;20669;-71
2021/03/19 10:52:04;;;;;;;1.52;0.30;;;;;;;10.54;29.22;102614.00;5022899;28;20259;-71
2021/03/19 10:54:38;;;;;;;0.98;0.20;;;;;;;10.24;28.58;102614.38;5034908;28;20037;-72
2021/03/19 10:57:26;;;;;;;1.27;0.17;;;;;;;9.22;29.76;102628.25;5042525;28;20041;-71
2021/03/19 10:59:53;;;;;;;2.15;0.95;;;;;;;9.08;31.08;102622.28;5041708;28;20034;-71
2021/03/19 11:02:30;;;;;;;1.02;0.20;;;;;;;9.64;29.93;102623.59;5021757;28;20119;-71
2021/03/19 11:04:55;;;;;;;2.88;0.40;;;;;;;9.99;29.58;102625.94;5036452;28;20563;-71
2021/03/19 11:07:25;;;;;;;2.65;0.45;;;;;;;10.03;28.54;102632.00;5028944;28;20032;-71
2021/03/19 11:10:06;;;;;;;1.05;0.20;;;;;;;9.34;28.97;102624.69;5020587;28;20486;-70
2021/03/19 11:12:46;;;;;;;1.10;0.20;;;;;;;9.29;29.32;102627.34;5021569;28;20037;-71
2021/03/19 11:15:13;;;;;;;0.95;0.30;;;;;;;9.60;30.44;102627.97;5039121;28;20029;-71
2021/03/19 11:17:39;;;;;;;2.53;0.30;;;;;;;9.74;30.57;102630.47;5039408;28;20124;-71
2021/03/19 11:20:17;;;;;;;0.75;0.20;;;;;;;9.76;30.43;102633.94;5042888;28;20517;-71
2021/03/19 11:22:46;;;;;;;1.92;0.35;;;;;;;10.59;29.38;102620.06;5040219;28;20037;-70
2021/03/19 11:25:15;;;;;;;4.28;0.55;;;;;;;10.36;29.40;102635.16;5029210;28;20072;-74
2021/03/19 11:27:40;;;;;;;1.95;0.28;;;;;;;10.27;29.50;102630.88;5041616;28;20034;-71
2021/03/19 11:30:22;;;;;;;1.15;0.40;;;;;;;10.51;29.43;102627.13;5021965;28;20041;-71
2021/03/19 11:33:10;;;;;;;0.60;0.30;;;;;;;11.02;28.62;102637.00;5039672;28;20131;-71
2021/03/19 11:35:36;;;;;;;2.42;0.20;;;;;;;10.18;29.81;102642.28;5024537;28;20292;-71
2021/03/19 11:38:02;;;;;;;2.50;0.50;;;;;;;10.45;29.29;102644.63;5025417;28;20147;-70
2021/03/19 11:40:37;;;;;;;2.95;0.40;;;;;;;9.71;29.88;102646.19;5037356;28;20388;-71
2021/03/19 11:43:06;;;;;;;0.65;0.40;;;;;;;9.17;31.35;102653.53;5039271;28;20064;-71
2021/03/19 11:45:37;;;;;;;3.15;0.43;;;;;;;10.00;31.11;102647.69;5038458;28;20124;-71
2021/03/19 11:48:26;;;;;;;4.37;0.80;;;;;;;10.19;30.83;102648.38;5020869;28;20052;-72
2021/03/19 11:51:06;;;;;;;2.60;1.60;;;;;;;11.01;30.57;102651.78;5036211;28;20025;-71
2021/03/19 11:53:31;;;;;;;5.07;0.85;;;;;;;10.94;30.25;102651.91;5040168;28;20021;-71
2021/03/19 11:55:58;;;;;;;4.03;0.63;;;;;;;10.40;31.08;102655.16;5025381;28;20519;-71
2021/03/19 11:58:27;;;;;;;4.47;0.50;;;;;;;9.01;32.31;102665.78;5036648;28;20033;-70